sensor_id;sensor_type;location;lat;lon;timestamp;pressure;altitude;pressure_sealevel;temperature;humidity
22872;BME280;11603;44.910;8.630;2023-06-01T00:00:59;100764.81;;;19.01;100.00
22872;BME280;11603;44.910;8.630;2023-06-01T00:03:26;100761.97;;;19.02;100.00
22872;BME280;11603;44.910;8.630;2023-06-01T00:05:54;100766.28;;;19.05;100.00
22872;BME280;11603;44.910;8.630;2023-06-01T00:08:21;100760.00;;;19.04;100.00
22872;BME280;11603;44.910;8.630;2023-06-01T00:10:48;100762.97;;;19.01;100.00
22872;BME280;11603;44.910;8.630;2023-06-01T00:13:14;100765.28;;;18.96;100.00
22872;BME280;11603;44.910;8.630;2023-06-01T00:15:39;100766.84;;;18.89;100.00
22872;BME280;11603;44.910;8.630;2023-06-01T00:18:05;100770.28;;;18.91;100.00
22872;BME280;11603;44.910;8.630;2023-06-01T00:20:31;100765.41;;;18.85;100.00
22872;BME280;11603;44.910;8.630;2023-06-01T00:22:58;100773.72;;;18.84;100.00
22872;BME280;11603;44.910;8.630;2023-06-01T00:25:25;100774.00;;;18.81;100.00
22872;BME280;11603;44.910;8.630;2023-06-01T00:27:50;100766.59;;;18.73;100.00
22872;BME280;11603;44.910;8.630;2023-06-01T00:30:16;100762.44;;;18.69;100.00
22872;BME280;11603;44.910;8.630;2023-06-01T00:32:41;100762.72;;;18.66;100.00
22872;BME280;11603;44.910;8.630;2023-06-01T00:35:07;100764.28;;;18.59;100.00
22872;BME280;11603;44.910;8.630;2023-06-01T00:37:32;100757.00;;;18.50;100.00
22872;BME280;11603;44.910;8.630;2023-06-01T00:39:58;100764.56;;;18.46;100.00
22872;BME280;11603;44.910;8.630;2023-06-01T00:42:23;100745.44;;;18.38;100.00
22872;BME280;11603;44.910;8.630;2023-06-01T00:44:49;100755.38;;;18.18;100.00
22872;BME280;11603;44.910;8.630;2023-06-01T00:47:14;100751.13;;;18.16;100.00
22872;BME280;11603;44.910;8.630;2023-06-01T00:49:42;100750.84;;;18.19;100.00
22872;BME280;11603;44.910;8.630;2023-06-01T00:52:08;100755.94;;;18.12;100.00
22872;BME280;11603;44.910;8.630;2023-06-01T00:54:33;100747.25;;;17.99;100.00
22872;BME280;11603;44.910;8.630;2023-06-01T00:56:59;100754.81;;;18.05;100.00
22872;BME280;11603;44.910;8.630;2023-06-01T00:59:26;100745.25;;;18.11;100.00
22872;BME280;11603;44.910;8.630;2023-06-01T01:01:51;100741.28;;;18.05;100.00
22872;BME280;11603;44.910;8.630;2023-06-01T01:04:18;100741.84;;;18.09;100.00
22872;BME280;11603;44.910;8.630;2023-06-01T01:07:10;100744.97;;;18.14;100.00
22872;BME280;11603;44.910;8.630;2023-06-01T01:09:59;100740.84;;;18.19;100.00
22872;BME280;11603;44.910;8.630;2023-06-01T01:12:38;100738.72;;;18.23;100.00
22872;BME280;11603;44.910;8.630;2023-06-01T01:17:45;100745.56;;;18.27;100.00
22872;BME280;11603;44.910;8.630;2023-06-01T01:20:18;100739.16;;;18.28;100.00
22872;BME280;11603;44.910;8.630;2023-06-01T01:30:41;100744.00;;;18.15;100.00
22872;BME280;11603;44.910;8.630;2023-06-01T01:33:07;100741.72;;;18.20;100.00
22872;BME280;11603;44.910;8.630;2023-06-01T01:35:33;100740.13;;;18.17;100.00
22872;BME280;11603;44.910;8.630;2023-06-01T01:37:59;100746.16;;;18.21;100.00
22872;BME280;11603;44.910;8.630;2023-06-01T01:40:25;100739.28;;;18.17;100.00
22872;BME280;11603;44.910;8.630;2023-06-01T01:42:51;100735.56;;;18.18;100.00
22872;BME280;11603;44.910;8.630;2023-06-01T01:45:17;100736.44;;;18.18;100.00
22872;BME280;11603;44.910;8.630;2023-06-01T01:47:55;100735.44;;;18.10;100.00
22872;BME280;11603;44.910;8.630;2023-06-01T01:50:27;100727.44;;;18.08;100.00
22872;BME280;11603;44.910;8.630;2023-06-01T01:52:55;100734.28;;;18.03;100.00
22872;BME280;11603;44.910;8.630;2023-06-01T01:55:23;100734.25;;;17.93;100.00
22872;BME280;11603;44.910;8.630;2023-06-01T01:57:54;100729.41;;;17.87;100.00
22872;BME280;11603;44.910;8.630;2023-06-01T02:00:21;100736.66;;;17.87;100.00
22872;BME280;11603;44.910;8.630;2023-06-01T02:02:47;100733.94;;;17.87;100.00
22872;BME280;11603;44.910;8.630;2023-06-01T02:05:14;100719.41;;;17.78;100.00
22872;BME280;11603;44.910;8.630;2023-06-01T02:07:40;100720.94;;;17.71;100.00
22872;BME280;11603;44.910;8.630;2023-06-01T02:10:06;100717.66;;;17.67;100.00
22872;BME280;11603;44.910;8.630;2023-06-01T02:12:32;100719.50;;;17.67;100.00
22872;BME280;11603;44.910;8.630;2023-06-01T02:14:57;100724.78;;;17.68;100.00
22872;BME280;11603;44.910;8.630;2023-06-01T02:17:23;100731.31;;;17.66;100.00
22872;BME280;11603;44.910;8.630;2023-06-01T02:19:50;100724.19;;;17.65;100.00
22872;BME280;11603;44.910;8.630;2023-06-01T02:22:16;100720.06;;;17.61;100.00
22872;BME280;11603;44.910;8.630;2023-06-01T02:24:41;100721.28;;;17.57;100.00
22872;BME280;11603;44.910;8.630;2023-06-01T02:27:07;100720.41;;;17.47;100.00
22872;BME280;11603;44.910;8.630;2023-06-01T02:29:33;100715.09;;;17.35;100.00
22872;BME280;11603;44.910;8.630;2023-06-01T02:31:58;100724.19;;;17.34;100.00
22872;BME280;11603;44.910;8.630;2023-06-01T02:34:24;100725.16;;;17.33;100.00
22872;BME280;11603;44.910;8.630;2023-06-01T02:36:50;100719.75;;;17.33;100.00
22872;BME280;11603;44.910;8.630;2023-06-01T02:39:17;100712.78;;;17.31;100.00
22872;BME280;11603;44.910;8.630;2023-06-01T02:41:43;100718.19;;;17.31;100.00
22872;BME280;11603;44.910;8.630;2023-06-01T02:44:08;100718.03;;;17.32;100.00
22872;BME280;11603;44.910;8.630;2023-06-01T02:46:34;100720.91;;;17.31;100.00
22872;BME280;11603;44.910;8.630;2023-06-01T02:49:00;100716.19;;;17.33;100.00
22872;BME280;11603;44.910;8.630;2023-06-01T02:51:26;100710.09;;;17.31;100.00
22872;BME280;11603;44.910;8.630;2023-06-01T02:54:02;100707.63;;;17.28;100.00
22872;BME280;11603;44.910;8.630;2023-06-01T02:56:27;100710.88;;;17.22;100.00
22872;BME280;11603;44.910;8.630;2023-06-01T02:59:13;100715.47;;;17.21;100.00
22872;BME280;11603;44.910;8.630;2023-06-01T03:01:45;100710.88;;;17.22;100.00
22872;BME280;11603;44.910;8.630;2023-06-01T03:04:11;100714.72;;;17.19;100.00
22872;BME280;11603;44.910;8.630;2023-06-01T03:06:38;100717.72;;;17.16;100.00
22872;BME280;11603;44.910;8.630;2023-06-01T03:09:37;100712.44;;;17.15;100.00
22872;BME280;11603;44.910;8.630;2023-06-01T03:12:21;100715.34;;;17.02;100.00
22872;BME280;11603;44.910;8.630;2023-06-01T03:14:46;100725.28;;;17.02;100.00
22872;BME280;11603;44.910;8.630;2023-06-01T03:17:12;100719.19;;;17.00;100.00
22872;BME280;11603;44.910;8.630;2023-06-01T03:19:37;100714.63;;;17.00;100.00
22872;BME280;11603;44.910;8.630;2023-06-01T03:22:13;100721.88;;;17.00;100.00
22872;BME280;11603;44.910;8.630;2023-06-01T03:24:39;100719.00;;;17.01;100.00
22872;BME280;11603;44.910;8.630;2023-06-01T03:27:07;100714.63;;;17.00;100.00
22872;BME280;11603;44.910;8.630;2023-06-01T03:29:35;100725.56;;;16.99;100.00
22872;BME280;11603;44.910;8.630;2023-06-01T03:32:01;100714.88;;;16.97;100.00
22872;BME280;11603;44.910;8.630;2023-06-01T03:34:26;100720.69;;;16.92;100.00
22872;BME280;11603;44.910;8.630;2023-06-01T03:36:53;100717.00;;;16.93;100.00
22872;BME280;11603;44.910;8.630;2023-06-01T03:39:18;100716.25;;;16.91;100.00
22872;BME280;11603;44.910;8.630;2023-06-01T03:41:44;100714.75;;;16.78;100.00
22872;BME280;11603;44.910;8.630;2023-06-01T03:44:11;100718.19;;;16.80;100.00
22872;BME280;11603;44.910;8.630;2023-06-01T03:46:38;100718.66;;;16.85;100.00
22872;BME280;11603;44.910;8.630;2023-06-01T03:49:04;100712.84;;;16.89;100.00
22872;BME280;11603;44.910;8.630;2023-06-01T03:51:30;100716.41;;;16.90;100.00
22872;BME280;11603;44.910;8.630;2023-06-01T03:53:56;100723.38;;;16.92;100.00
22872;BME280;11603;44.910;8.630;2023-06-01T03:56:22;100722.41;;;16.93;100.00
22872;BME280;11603;44.910;8.630;2023-06-01T03:58:49;100726.41;;;16.99;100.00
22872;BME280;11603;44.910;8.630;2023-06-01T04:01:16;100731.41;;;17.04;100.00
22872;BME280;11603;44.910;8.630;2023-06-01T04:03:43;100734.97;;;17.04;100.00
22872;BME280;11603;44.910;8.630;2023-06-01T04:06:09;100731.41;;;17.04;100.00
22872;BME280;11603;44.910;8.630;2023-06-01T04:08:42;100730.16;;;17.08;100.00
22872;BME280;11603;44.910;8.630;2023-06-01T04:11:17;100736.06;;;17.22;100.00
22872;BME280;11603;44.910;8.630;2023-06-01T04:13:43;100734.56;;;17.29;100.00
22872;BME280;11603;44.910;8.630;2023-06-01T04:16:12;100740.53;;;17.33;100.00
22872;BME280;11603;44.910;8.630;2023-06-01T04:18:39;100746.28;;;17.40;100.00
22872;BME280;11603;44.910;8.630;2023-06-01T04:21:05;100737.59;;;17.36;100.00
22872;BME280;11603;44.910;8.630;2023-06-01T04:23:32;100747.13;;;17.40;100.00
22872;BME280;11603;44.910;8.630;2023-06-01T04:25:58;100734.91;;;17.46;100.00
22872;BME280;11603;44.910;8.630;2023-06-01T04:28:26;100742.06;;;17.56;100.00
22872;BME280;11603;44.910;8.630;2023-06-01T04:30:52;100736.84;;;17.64;100.00
22872;BME280;11603;44.910;8.630;2023-06-01T04:33:18;100734.94;;;17.55;100.00
22872;BME280;11603;44.910;8.630;2023-06-01T04:35:44;100734.50;;;17.50;100.00
22872;BME280;11603;44.910;8.630;2023-06-01T04:38:11;100736.59;;;17.37;100.00
22872;BME280;11603;44.910;8.630;2023-06-01T04:40:37;100736.16;;;17.32;100.00
22872;BME280;11603;44.910;8.630;2023-06-01T04:43:02;100728.16;;;17.30;100.00
22872;BME280;11603;44.910;8.630;2023-06-01T04:45:29;100736.22;;;17.21;100.00
22872;BME280;11603;44.910;8.630;2023-06-01T04:47:56;100730.94;;;17.19;100.00
22872;BME280;11603;44.910;8.630;2023-06-01T04:50:32;100730.97;;;17.29;100.00
22872;BME280;11603;44.910;8.630;2023-06-01T04:52:58;100728.69;;;17.24;100.00
22872;BME280;11603;44.910;8.630;2023-06-01T04:55:24;100727.38;;;17.19;100.00
22872;BME280;11603;44.910;8.630;2023-06-01T04:57:49;100732.06;;;17.17;100.00
22872;BME280;11603;44.910;8.630;2023-06-01T05:00:15;100728.25;;;17.19;100.00
22872;BME280;11603;44.910;8.630;2023-06-01T05:02:44;100737.84;;;17.33;100.00
22872;BME280;11603;44.910;8.630;2023-06-01T05:05:13;100737.91;;;17.43;100.00
22872;BME280;11603;44.910;8.630;2023-06-01T05:07:40;100742.75;;;17.49;100.00
22872;BME280;11603;44.910;8.630;2023-06-01T05:10:08;100740.47;;;17.54;100.00
22872;BME280;11603;44.910;8.630;2023-06-01T05:12:44;100737.53;;;17.57;100.00
22872;BME280;11603;44.910;8.630;2023-06-01T05:15:12;100729.47;;;17.66;100.00
22872;BME280;11603;44.910;8.630;2023-06-01T05:17:38;100730.34;;;17.76;100.00
22872;BME280;11603;44.910;8.630;2023-06-01T05:20:09;100736.41;;;17.90;100.00
22872;BME280;11603;44.910;8.630;2023-06-01T05:22:37;100735.28;;;18.11;100.00
22872;BME280;11603;44.910;8.630;2023-06-01T05:25:03;100740.13;;;18.27;100.00
22872;BME280;11603;44.910;8.630;2023-06-01T05:27:29;100735.75;;;18.36;100.00
22872;BME280;11603;44.910;8.630;2023-06-01T05:29:55;100740.19;;;18.46;100.00
22872;BME280;11603;44.910;8.630;2023-06-01T05:32:21;100734.66;;;18.67;100.00
22872;BME280;11603;44.910;8.630;2023-06-01T05:34:47;100741.88;;;18.86;100.00
22872;BME280;11603;44.910;8.630;2023-06-01T05:37:12;100739.91;;;18.59;100.00
22872;BME280;11603;44.910;8.630;2023-06-01T05:39:38;100742.44;;;18.51;100.00
22872;BME280;11603;44.910;8.630;2023-06-01T05:42:05;100740.31;;;18.74;100.00
22872;BME280;11603;44.910;8.630;2023-06-01T05:44:35;100737.31;;;18.86;100.00
22872;BME280;11603;44.910;8.630;2023-06-01T05:47:01;100734.31;;;18.99;100.00
22872;BME280;11603;44.910;8.630;2023-06-01T05:49:26;100734.84;;;19.12;100.00
22872;BME280;11603;44.910;8.630;2023-06-01T05:51:57;100728.72;;;19.00;100.00
22872;BME280;11603;44.910;8.630;2023-06-01T05:54:24;100738.88;;;18.98;100.00
22872;BME280;11603;44.910;8.630;2023-06-01T05:56:49;100743.88;;;18.93;100.00
22872;BME280;11603;44.910;8.630;2023-06-01T05:59:15;100746.31;;;18.77;100.00
22872;BME280;11603;44.910;8.630;2023-06-01T06:01:42;100746.59;;;18.74;100.00
22872;BME280;11603;44.910;8.630;2023-06-01T06:04:09;100746.91;;;18.71;100.00
22872;BME280;11603;44.910;8.630;2023-06-01T06:06:36;100750.47;;;18.72;100.00
22872;BME280;11603;44.910;8.630;2023-06-01T06:09:02;100754.03;;;18.72;100.00
22872;BME280;11603;44.910;8.630;2023-06-01T06:11:29;100739.75;;;18.70;100.00
22872;BME280;11603;44.910;8.630;2023-06-01T06:13:55;100743.88;;;18.74;100.00
22872;BME280;11603;44.910;8.630;2023-06-01T06:16:21;100735.16;;;18.90;100.00
22872;BME280;11603;44.910;8.630;2023-06-01T06:18:46;100731.44;;;19.00;100.00
22872;BME280;11603;44.910;8.630;2023-06-01T06:21:12;100744.56;;;18.95;100.00
22872;BME280;11603;44.910;8.630;2023-06-01T06:23:37;100745.44;;;18.96;100.00
22872;BME280;11603;44.910;8.630;2023-06-01T06:26:05;100746.41;;;19.14;100.00
22872;BME280;11603;44.910;8.630;2023-06-01T06:28:31;100749.50;;;19.29;100.00
22872;BME280;11603;44.910;8.630;2023-06-01T06:30:57;100755.06;;;19.47;100.00
22872;BME280;11603;44.910;8.630;2023-06-01T06:33:22;100755.06;;;19.47;100.00
22872;BME280;11603;44.910;8.630;2023-06-01T06:35:48;100747.47;;;19.50;100.00
22872;BME280;11603;44.910;8.630;2023-06-01T06:38:13;100746.69;;;19.58;100.00
22872;BME280;11603;44.910;8.630;2023-06-01T06:40:39;100751.25;;;19.67;100.00
22872;BME280;11603;44.910;8.630;2023-06-01T06:43:04;100746.72;;;19.85;100.00
22872;BME280;11603;44.910;8.630;2023-06-01T06:45:30;100748.72;;;20.10;100.00
22872;BME280;11603;44.910;8.630;2023-06-01T06:47:56;100745.19;;;20.27;100.00
22872;BME280;11603;44.910;8.630;2023-06-01T06:50:22;100744.91;;;20.48;100.00
22872;BME280;11603;44.910;8.630;2023-06-01T06:52:47;100750.09;;;20.42;100.00
22872;BME280;11603;44.910;8.630;2023-06-01T06:55:13;100745.13;;;20.37;100.00
22872;BME280;11603;44.910;8.630;2023-06-01T06:57:38;100749.88;;;20.53;100.00
22872;BME280;11603;44.910;8.630;2023-06-01T07:00:09;100741.63;;;20.62;100.00
22872;BME280;11603;44.910;8.630;2023-06-01T07:02:40;100751.91;;;20.51;100.00
22872;BME280;11603;44.910;8.630;2023-06-01T07:05:06;100749.00;;;20.52;100.00
22872;BME280;11603;44.910;8.630;2023-06-01T07:07:33;100746.31;;;20.70;100.00
22872;BME280;11603;44.910;8.630;2023-06-01T07:09:59;100746.81;;;20.91;100.00
22872;BME280;11603;44.910;8.630;2023-06-01T07:12:24;100751.69;;;21.05;100.00
22872;BME280;11603;44.910;8.630;2023-06-01T07:14:50;100746.16;;;21.15;100.00
22872;BME280;11603;44.910;8.630;2023-06-01T07:17:16;100748.44;;;21.20;100.00
22872;BME280;11603;44.910;8.630;2023-06-01T07:19:41;100750.31;;;21.19;100.00
22872;BME280;11603;44.910;8.630;2023-06-01T07:22:07;100750.56;;;21.34;100.00
22872;BME280;11603;44.910;8.630;2023-06-01T07:24:32;100747.19;;;21.40;100.00
22872;BME280;11603;44.910;8.630;2023-06-01T07:26:58;100740.53;;;21.34;100.00
22872;BME280;11603;44.910;8.630;2023-06-01T07:29:25;100742.41;;;21.34;100.00
22872;BME280;11603;44.910;8.630;2023-06-01T07:31:52;100741.41;;;21.43;100.00
22872;BME280;11603;44.910;8.630;2023-06-01T07:34:18;100737.19;;;21.48;100.00
22872;BME280;11603;44.910;8.630;2023-06-01T07:36:45;100732.28;;;21.52;100.00
22872;BME280;11603;44.910;8.630;2023-06-01T07:39:11;100738.28;;;21.64;100.00
22872;BME280;11603;44.910;8.630;2023-06-01T07:41:37;100731.47;;;21.60;100.00
22872;BME280;11603;44.910;8.630;2023-06-01T07:44:05;100731.19;;;21.71;100.00
22872;BME280;11603;44.910;8.630;2023-06-01T07:46:31;100735.28;;;21.67;100.00
22872;BME280;11603;44.910;8.630;2023-06-01T07:48:56;100733.19;;;21.61;100.00
22872;BME280;11603;44.910;8.630;2023-06-01T07:51:22;100725.19;;;21.59;100.00
22872;BME280;11603;44.910;8.630;2023-06-01T07:53:48;100725.28;;;21.83;100.00
22872;BME280;11603;44.910;8.630;2023-06-01T07:56:14;100725.38;;;22.00;100.00
22872;BME280;11603;44.910;8.630;2023-06-01T07:58:40;100730.50;;;22.03;100.00
22872;BME280;11603;44.910;8.630;2023-06-01T08:01:06;100735.13;;;22.18;100.00
22872;BME280;11603;44.910;8.630;2023-06-01T08:03:31;100726.09;;;22.18;100.00
22872;BME280;11603;44.910;8.630;2023-06-01T08:05:59;100730.03;;;22.23;100.00
22872;BME280;11603;44.910;8.630;2023-06-01T08:08:31;100722.56;;;22.33;100.00
22872;BME280;11603;44.910;8.630;2023-06-01T08:10:57;100727.31;;;22.31;100.00
22872;BME280;11603;44.910;8.630;2023-06-01T08:13:23;100724.44;;;22.41;100.00
22872;BME280;11603;44.910;8.630;2023-06-01T08:15:51;100726.50;;;22.63;100.00
22872;BME280;11603;44.910;8.630;2023-06-01T08:18:18;100722.97;;;22.71;100.00
22872;BME280;11603;44.910;8.630;2023-06-01T08:20:45;100714.28;;;22.75;100.00
22872;BME280;11603;44.910;8.630;2023-06-01T08:23:11;100714.25;;;22.84;100.00
22872;BME280;11603;44.910;8.630;2023-06-01T08:25:37;100710.50;;;22.93;100.00
22872;BME280;11603;44.910;8.630;2023-06-01T08:28:02;100711.31;;;23.09;100.00
22872;BME280;11603;44.910;8.630;2023-06-01T08:30:28;100707.06;;;23.23;100.00
22872;BME280;11603;44.910;8.630;2023-06-01T08:32:53;100711.13;;;23.27;100.00
22872;BME280;11603;44.910;8.630;2023-06-01T08:35:19;100716.72;;;23.42;100.00
22872;BME280;11603;44.910;8.630;2023-06-01T08:37:47;100712.09;;;23.42;100.00
22872;BME280;11603;44.910;8.630;2023-06-01T08:40:13;100707.50;;;23.51;100.00
22872;BME280;11603;44.910;8.630;2023-06-01T08:42:46;100707.16;;;23.54;100.00
22872;BME280;11603;44.910;8.630;2023-06-01T08:45:16;100704.06;;;23.57;100.00
22872;BME280;11603;44.910;8.630;2023-06-01T08:47:43;100690.72;;;23.62;100.00
22872;BME280;11603;44.910;8.630;2023-06-01T08:50:09;100694.09;;;23.72;100.00
22872;BME280;11603;44.910;8.630;2023-06-01T08:52:36;100690.44;;;23.88;100.00
22872;BME280;11603;44.910;8.630;2023-06-01T08:55:04;100691.59;;;23.93;100.00
22872;BME280;11603;44.910;8.630;2023-06-01T08:57:30;100688.00;;;23.93;100.00
22872;BME280;11603;44.910;8.630;2023-06-01T08:59:57;100689.19;;;23.98;100.00
22872;BME280;11603;44.910;8.630;2023-06-01T09:02:23;100687.84;;;23.94;100.00
22872;BME280;11603;44.910;8.630;2023-06-01T09:04:49;100681.50;;;24.02;100.00
22872;BME280;11603;44.910;8.630;2023-06-01T09:07:16;100677.50;;;24.13;100.00
22872;BME280;11603;44.910;8.630;2023-06-01T09:09:43;100673.88;;;24.20;100.00
22872;BME280;11603;44.910;8.630;2023-06-01T09:12:27;100677.69;;;24.34;100.00
22872;BME280;11603;44.910;8.630;2023-06-01T09:15:07;100665.56;;;24.36;100.00
22872;BME280;11603;44.910;8.630;2023-06-01T09:17:33;100673.91;;;24.43;100.00
22872;BME280;11603;44.910;8.630;2023-06-01T09:20:00;100667.56;;;24.42;100.00
22872;BME280;11603;44.910;8.630;2023-06-01T09:22:42;100670.44;;;24.49;100.00
22872;BME280;11603;44.910;8.630;2023-06-01T09:25:09;100665.47;;;24.67;100.00
22872;BME280;11603;44.910;8.630;2023-06-01T09:27:47;100653.41;;;24.76;100.00
22872;BME280;11603;44.910;8.630;2023-06-01T09:30:13;100654.84;;;24.87;100.00
22872;BME280;11603;44.910;8.630;2023-06-01T09:32:39;100664.53;;;24.98;100.00
22872;BME280;11603;44.910;8.630;2023-06-01T09:35:05;100646.72;;;25.02;100.00
22872;BME280;11603;44.910;8.630;2023-06-01T09:37:34;100647.16;;;24.91;100.00
22872;BME280;11603;44.910;8.630;2023-06-01T09:40:00;100647.47;;;24.96;100.00
22872;BME280;11603;44.910;8.630;2023-06-01T09:42:33;100647.81;;;25.07;100.00
22872;BME280;11603;44.910;8.630;2023-06-01T09:45:22;100650.88;;;25.27;100.00
22872;BME280;11603;44.910;8.630;2023-06-01T09:47:48;100647.56;;;25.31;100.00
22872;BME280;11603;44.910;8.630;2023-06-01T09:52:58;100636.47;;;25.54;100.00
22872;BME280;11603;44.910;8.630;2023-06-01T09:55:24;100637.44;;;25.47;100.00
22872;BME280;11603;44.910;8.630;2023-06-01T09:57:51;100630.84;;;25.41;100.00
22872;BME280;11603;44.910;8.630;2023-06-01T10:00:24;100637.91;;;25.50;100.00
22872;BME280;11603;44.910;8.630;2023-06-01T10:02:53;100631.78;;;25.63;100.00
22872;BME280;11603;44.910;8.630;2023-06-01T10:05:21;100627.31;;;25.77;97.14
22872;BME280;11603;44.910;8.630;2023-06-01T10:07:47;100630.41;;;25.88;98.07
22872;BME280;11603;44.910;8.630;2023-06-01T10:10:14;100622.31;;;26.01;96.76
22872;BME280;11603;44.910;8.630;2023-06-01T10:12:40;100623.41;;;26.07;95.11
22872;BME280;11603;44.910;8.630;2023-06-01T10:15:07;100624.97;;;26.31;93.64
22872;BME280;11603;44.910;8.630;2023-06-01T10:17:36;100618.69;;;26.15;84.85
22872;BME280;11603;44.910;8.630;2023-06-01T10:20:09;100622.59;;;26.28;83.15
22872;BME280;11603;44.910;8.630;2023-06-01T10:22:35;100619.81;;;26.42;86.14
22872;BME280;11603;44.910;8.630;2023-06-01T10:25:00;100616.22;;;26.42;82.88
22872;BME280;11603;44.910;8.630;2023-06-01T10:27:35;100608.38;;;26.39;79.21
22872;BME280;11603;44.910;8.630;2023-06-01T10:30:07;100607.66;;;26.51;80.92
22872;BME280;11603;44.910;8.630;2023-06-01T10:35:03;100606.63;;;26.59;76.47
22872;BME280;11603;44.910;8.630;2023-06-01T10:37:28;100610.81;;;26.27;75.69
22872;BME280;11603;44.910;8.630;2023-06-01T10:40:10;100609.22;;;26.39;75.67
22872;BME280;11603;44.910;8.630;2023-06-01T10:42:44;100605.69;;;26.45;70.85
22872;BME280;11603;44.910;8.630;2023-06-01T10:48:08;100609.47;;;26.23;68.86
22872;BME280;11603;44.910;8.630;2023-06-01T10:50:36;100596.78;;;26.43;68.11
22872;BME280;11603;44.910;8.630;2023-06-01T10:53:31;100594.25;;;26.70;59.85
22872;BME280;11603;44.910;8.630;2023-06-01T10:56:23;100585.66;;;27.01;55.71
22872;BME280;11603;44.910;8.630;2023-06-01T11:01:40;100588.91;;;27.17;61.64
22872;BME280;11603;44.910;8.630;2023-06-01T11:04:06;100585.19;;;27.31;64.40
22872;BME280;11603;44.910;8.630;2023-06-01T11:06:34;100579.03;;;27.29;60.60
22872;BME280;11603;44.910;8.630;2023-06-01T11:09:05;100580.94;;;27.29;59.74
22872;BME280;11603;44.910;8.630;2023-06-01T11:14:22;100576.63;;;27.13;61.48
22872;BME280;11603;44.910;8.630;2023-06-01T11:16:49;100576.47;;;26.87;62.61
22872;BME280;11603;44.910;8.630;2023-06-01T11:19:19;100571.94;;;27.07;62.21
22872;BME280;11603;44.910;8.630;2023-06-01T11:21:59;100566.19;;;27.36;59.81
22872;BME280;11603;44.910;8.630;2023-06-01T11:24:32;100561.69;;;27.63;58.65
22872;BME280;11603;44.910;8.630;2023-06-01T11:27:08;100561.50;;;27.85;58.78
22872;BME280;11603;44.910;8.630;2023-06-01T11:29:34;100560.44;;;27.86;59.51
22872;BME280;11603;44.910;8.630;2023-06-01T11:32:01;100553.47;;;27.83;59.50
22872;BME280;11603;44.910;8.630;2023-06-01T11:34:39;100556.19;;;27.76;57.16
22872;BME280;11603;44.910;8.630;2023-06-01T11:37:14;100553.47;;;27.83;55.58
22872;BME280;11603;44.910;8.630;2023-06-01T11:39:40;100544.88;;;28.19;55.91
22872;BME280;11603;44.910;8.630;2023-06-01T11:42:08;100537.03;;;28.22;55.64
22872;BME280;11603;44.910;8.630;2023-06-01T11:44:37;100535.75;;;28.32;55.17
22872;BME280;11603;44.910;8.630;2023-06-01T11:47:04;100540.44;;;28.25;54.73
22872;BME280;11603;44.910;8.630;2023-06-01T11:49:40;100540.44;;;28.44;53.88
22872;BME280;11603;44.910;8.630;2023-06-01T11:52:08;100531.31;;;28.57;53.16
22872;BME280;11603;44.910;8.630;2023-06-01T11:54:34;100533.88;;;28.26;53.37
22872;BME280;11603;44.910;8.630;2023-06-01T11:57:02;100529.56;;;27.90;53.05
22872;BME280;11603;44.910;8.630;2023-06-01T11:59:36;100520.72;;;28.08;53.48
22872;BME280;11603;44.910;8.630;2023-06-01T12:02:02;100511.44;;;28.15;52.69
22872;BME280;11603;44.910;8.630;2023-06-01T12:04:28;100507.84;;;28.35;52.23
22872;BME280;11603;44.910;8.630;2023-06-01T12:07:05;100503.34;;;28.07;52.56
22872;BME280;11603;44.910;8.630;2023-06-01T12:09:31;100504.88;;;28.30;52.24
22872;BME280;11603;44.910;8.630;2023-06-01T12:11:57;100508.25;;;28.38;52.83
22872;BME280;11603;44.910;8.630;2023-06-01T12:14:23;100490.66;;;28.72;52.38
22872;BME280;11603;44.910;8.630;2023-06-01T12:16:56;100488.88;;;28.97;52.37
22872;BME280;11603;44.910;8.630;2023-06-01T12:19:24;100485.94;;;28.86;52.41
22872;BME280;11603;44.910;8.630;2023-06-01T12:21:50;100482.63;;;28.51;52.44
22872;BME280;11603;44.910;8.630;2023-06-01T12:24:17;100476.28;;;28.44;51.12
22872;BME280;11603;44.910;8.630;2023-06-01T12:26:43;100480.47;;;28.53;49.71
22872;BME280;11603;44.910;8.630;2023-06-01T12:29:08;100466.91;;;28.64;50.49
22872;BME280;11603;44.910;8.630;2023-06-01T12:31:34;100462.50;;;28.50;47.82
22872;BME280;11603;44.910;8.630;2023-06-01T12:34:00;100464.81;;;28.53;48.63
22872;BME280;11603;44.910;8.630;2023-06-01T12:38:59;100474.16;;;29.17;47.67
22872;BME280;11603;44.910;8.630;2023-06-01T12:41:25;100467.78;;;28.78;49.01
22872;BME280;11603;44.910;8.630;2023-06-01T12:43:51;100469.25;;;28.61;50.46
22872;BME280;11603;44.910;8.630;2023-06-01T12:46:20;100472.69;;;28.43;51.55
22872;BME280;11603;44.910;8.630;2023-06-01T12:48:47;100468.25;;;28.22;51.56
22872;BME280;11603;44.910;8.630;2023-06-01T12:51:13;100466.13;;;28.05;52.87
22872;BME280;11603;44.910;8.630;2023-06-01T12:53:38;100457.00;;;27.85;54.51
22872;BME280;11603;44.910;8.630;2023-06-01T12:56:05;100454.25;;;27.65;53.30
22872;BME280;11603;44.910;8.630;2023-06-01T12:58:30;100451.13;;;28.14;51.29
22872;BME280;11603;44.910;8.630;2023-06-01T13:00:56;100448.50;;;28.65;49.79
22872;BME280;11603;44.910;8.630;2023-06-01T13:03:22;100442.69;;;28.99;49.13
22872;BME280;11603;44.910;8.630;2023-06-01T13:05:48;100444.28;;;29.20;49.21
22872;BME280;11603;44.910;8.630;2023-06-01T13:08:18;100440.22;;;29.23;49.46
22872;BME280;11603;44.910;8.630;2023-06-01T13:10:44;100435.88;;;29.09;48.13
22872;BME280;11603;44.910;8.630;2023-06-01T13:13:10;100435.41;;;29.12;47.55